Time;durP1;ratioP1;P1;durP2;ratioP2;P2;SDS_P1;SDS_P2;PMS_P1;PMS_P2;Temp;Humidity;BMP_temperature;BMP_pressure;BME280_temperature;BME280_humidity;BME280_pressure;Samples;Min_cycle;Max_cycle;Signal;HPM_P1;HPM_P2
2022/09/29 00:00:48;;;;;;;1.90;1.57;;;;;;;;;;5076716;28;20199;-64
2022/09/29 00:03:18;;;;;;;1.47;1.37;;;;;;;;;;5068122;28;20229;-63
2022/09/29 00:05:47;;;;;;;2.00;1.53;;;;;;;;;;5071140;28;20286;-62
2022/09/29 00:08:16;;;;;;;1.50;1.40;;;;;;;;;;5057141;28;20210;-63
2022/09/29 00:10:44;;;;;;;1.90;1.80;;;;;;;;;;5063398;28;20205;-64
2022/09/29 00:13:12;;;;;;;3.57;1.60;;;;;;;;;;5075728;28;20198;-64
2022/09/29 00:15:40;;;;;;;2.30;2.10;;;;;;;;;;5079863;28;20206;-64
2022/09/29 00:18:10;;;;;;;4.20;2.33;;;;;;;;;;5071907;28;20199;-62
2022/09/29 00:20:43;;;;;;;2.50;2.30;;;;;;;;;;5053672;28;20205;-64
2022/09/29 00:23:11;;;;;;;2.60;2.40;;;;;;;;;;5068523;28;20214;-63
2022/09/29 00:25:38;;;;;;;2.43;2.23;;;;;;;;;;5071558;28;20229;-64
2022/09/29 00:28:06;;;;;;;3.13;2.50;;;;;;;;;;5072828;28;20206;-64
2022/09/29 00:30:34;;;;;;;2.77;2.37;;;;;;;;;;5077049;28;20665;-64
2022/09/29 00:33:02;;;;;;;2.40;2.20;;;;;;;;;;5068323;28;20210;-64
2022/09/29 00:35:30;;;;;;;4.40;2.37;;;;;;;;;;5076378;28;20201;-61
2022/09/29 00:38:00;;;;;;;3.43;2.77;;;;;;;;;;5068237;28;20214;-64
2022/09/29 00:40:27;;;;;;;2.90;2.70;;;;;;;;;;5068151;28;20202;-62
2022/09/29 00:42:55;;;;;;;3.53;2.70;;;;;;;;;;5060304;28;20225;-63
2022/09/29 00:45:24;;;;;;;4.20;2.80;;;;;;;;;;5061134;28;20223;-64
2022/09/29 00:48:01;;;;;;;4.97;3.20;;;;;;;;;;5066989;28;20201;-63
2022/09/29 00:50:34;;;;;;;3.33;3.00;;;;;;;;;;5068855;28;20217;-64
2022/09/29 00:53:10;;;;;;;4.40;3.13;;;;;;;;;;5073474;28;20206;-64
2022/09/29 00:55:41;;;;;;;2.80;2.60;;;;;;;;;;5074690;28;20724;-64
2022/09/29 00:58:12;;;;;;;3.30;3.00;;;;;;;;;;5073980;28;20202;-64
2022/09/29 01:00:40;;;;;;;3.40;3.10;;;;;;;;;;5076374;28;20704;-64
2022/09/29 01:03:10;;;;;;;3.10;2.80;;;;;;;;;;5073021;28;20199;-64
2022/09/29 01:05:40;;;;;;;3.37;3.07;;;;;;;;;;5061819;28;20714;-64
2022/09/29 01:08:12;;;;;;;2.90;2.47;;;;;;;;;;5072885;28;20207;-64
2022/09/29 01:10:40;;;;;;;2.07;1.90;;;;;;;;;;5069410;28;20214;-63
2022/09/29 01:13:08;;;;;;;1.00;1.00;;;;;;;;;;5072759;28;20233;-64
2022/09/29 01:15:36;;;;;;;0.97;0.97;;;;;;;;;;5068635;28;20218;-64
2022/09/29 01:18:05;;;;;;;2.10;0.60;;;;;;;;;;5079182;28;20202;-63
2022/09/29 01:20:34;;;;;;;0.50;0.50;;;;;;;;;;5076782;28;20210;-64
2022/09/29 01:23:17;;;;;;;0.40;0.40;;;;;;;;;;5068648;28;20205;-63
2022/09/29 01:25:54;;;;;;;0.97;0.70;;;;;;;;;;5066693;28;20222;-64
2022/09/29 01:28:31;;;;;;;0.70;0.70;;;;;;;;;;5067294;28;20198;-64
2022/09/29 01:31:08;;;;;;;0.63;0.63;;;;;;;;;;5063278;28;20198;-63
2022/09/29 01:33:39;;;;;;;0.60;0.60;;;;;;;;;;5068931;28;20222;-63
2022/09/29 01:36:11;;;;;;;0.97;0.80;;;;;;;;;;5066755;28;20302;-63
2022/09/29 01:38:47;;;;;;;1.27;0.80;;;;;;;;;;5067425;28;20226;-63
2022/09/29 01:41:18;;;;;;;0.83;0.53;;;;;;;;;;5076653;28;20213;-63
2022/09/29 01:43:48;;;;;;;1.43;0.60;;;;;;;;;;5070002;28;20237;-63
2022/09/29 01:46:21;;;;;;;0.60;0.60;;;;;;;;;;5058924;28;20219;-63
2022/09/29 01:48:50;;;;;;;0.43;0.40;;;;;;;;;;5076899;28;20206;-63
2022/09/29 01:51:20;;;;;;;0.70;0.70;;;;;;;;;;5072197;28;20221;-63
2022/09/29 01:53:50;;;;;;;1.43;0.70;;;;;;;;;;5060396;28;20230;-63
2022/09/29 01:56:21;;;;;;;0.60;0.60;;;;;;;;;;5064419;28;20246;-63
2022/09/29 01:58:53;;;;;;;2.63;0.53;;;;;;;;;;5059623;28;20590;-63
2022/09/29 02:01:25;;;;;;;0.60;0.60;;;;;;;;;;5059504;28;20202;-63
2022/09/29 02:03:56;;;;;;;1.43;0.80;;;;;;;;;;5060142;28;20230;-63
2022/09/29 02:06:26;;;;;;;0.43;0.43;;;;;;;;;;5059503;28;20222;-63
2022/09/29 02:08:55;;;;;;;0.63;0.63;;;;;;;;;;5060517;28;20643;-63
2022/09/29 02:11:23;;;;;;;3.37;1.53;;;;;;;;;;5066223;28;20206;-63
2022/09/29 02:13:59;;;;;;;0.83;0.73;;;;;;;;;;5065433;28;20232;-63
2022/09/29 02:16:30;;;;;;;1.60;0.40;;;;;;;;;;5064981;28;20647;-63
2022/09/29 02:19:01;;;;;;;1.10;0.57;;;;;;;;;;5068898;28;20248;-63
2022/09/29 02:21:29;;;;;;;0.90;0.67;;;;;;;;;;5067735;28;20221;-61
2022/09/29 02:23:58;;;;;;;0.40;0.40;;;;;;;;;;5066721;28;20685;-61
2022/09/29 02:26:31;;;;;;;0.50;0.50;;;;;;;;;;5066851;28;20238;-63
2022/09/29 02:29:01;;;;;;;2.40;0.70;;;;;;;;;;5067784;28;20664;-62
2022/09/29 02:31:31;;;;;;;1.30;0.80;;;;;;;;;;5066688;28;20195;-62
2022/09/29 02:34:00;;;;;;;0.90;0.60;;;;;;;;;;5068673;28;20218;-63
2022/09/29 02:36:33;;;;;;;0.50;0.50;;;;;;;;;;5068962;28;20198;-63
2022/09/29 02:39:02;;;;;;;0.60;0.60;;;;;;;;;;5060938;28;20547;-63
2022/09/29 02:41:36;;;;;;;1.00;1.00;;;;;;;;;;5049876;28;20209;-62
2022/09/29 02:44:30;;;;;;;0.57;0.57;;;;;;;;;;5065735;28;20233;-62
2022/09/29 02:47:12;;;;;;;0.60;0.60;;;;;;;;;;5064292;28;20219;-63
2022/09/29 02:49:49;;;;;;;1.20;0.77;;;;;;;;;;5063669;28;20202;-62
2022/09/29 02:52:22;;;;;;;0.60;0.60;;;;;;;;;;5065252;28;20213;-63
2022/09/29 02:54:56;;;;;;;0.80;0.80;;;;;;;;;;5064485;28;20228;-63
2022/09/29 02:57:26;;;;;;;2.03;0.87;;;;;;;;;;5060282;28;20206;-63
2022/09/29 02:59:59;;;;;;;0.63;0.63;;;;;;;;;;5065909;28;20199;-62
2022/09/29 03:02:27;;;;;;;0.70;0.70;;;;;;;;;;5065856;28;20205;-62
2022/09/29 03:04:56;;;;;;;1.70;0.70;;;;;;;;;;5060724;28;20218;-62
2022/09/29 03:07:24;;;;;;;1.93;1.10;;;;;;;;;;5069674;28;20663;-62
2022/09/29 03:09:52;;;;;;;0.70;0.70;;;;;;;;;;5067680;28;20567;-63
2022/09/29 03:12:20;;;;;;;0.90;0.90;;;;;;;;;;5068740;28;20202;-63
2022/09/29 03:14:48;;;;;;;1.67;0.80;;;;;;;;;;5067831;28;20233;-63
2022/09/29 03:17:16;;;;;;;1.17;0.80;;;;;;;;;;5076379;28;20220;-62
2022/09/29 03:19:44;;;;;;;0.77;0.70;;;;;;;;;;5065886;28;20202;-62
2022/09/29 03:22:13;;;;;;;0.73;0.73;;;;;;;;;;5060613;28;20194;-62
2022/09/29 03:24:41;;;;;;;0.60;0.60;;;;;;;;;;5060636;28;20218;-63
2022/09/29 03:27:09;;;;;;;0.90;0.70;;;;;;;;;;5057278;28;20702;-62
2022/09/29 03:29:37;;;;;;;0.70;0.70;;;;;;;;;;5063212;28;20658;-63
2022/09/29 03:32:06;;;;;;;2.97;0.80;;;;;;;;;;5067919;28;20198;-62
2022/09/29 03:34:34;;;;;;;0.63;0.63;;;;;;;;;;5068561;28;20229;-62
2022/09/29 03:37:02;;;;;;;0.40;0.40;;;;;;;;;;5066186;28;20665;-62
2022/09/29 03:39:31;;;;;;;0.83;0.83;;;;;;;;;;5057281;28;20203;-62
2022/09/29 03:41:59;;;;;;;1.83;0.60;;;;;;;;;;5064356;28;20210;-62
2022/09/29 03:44:27;;;;;;;0.47;0.47;;;;;;;;;;5073762;28;20230;-62
2022/09/29 03:46:55;;;;;;;0.27;0.27;;;;;;;;;;5065015;28;20231;-62
2022/09/29 03:49:23;;;;;;;0.43;0.30;;;;;;;;;;5070392;28;20213;-62
2022/09/29 03:51:51;;;;;;;0.20;0.20;;;;;;;;;;5067040;28;20206;-62
2022/09/29 03:54:19;;;;;;;1.00;0.50;;;;;;;;;;5061210;28;20231;-63
2022/09/29 03:56:48;;;;;;;0.30;0.30;;;;;;;;;;5079879;28;20221;-62
2022/09/29 03:59:16;;;;;;;0.30;0.30;;;;;;;;;;5073309;28;20203;-62
2022/09/29 04:01:44;;;;;;;0.40;0.40;;;;;;;;;;5063792;28;20298;-62
2022/09/29 04:04:12;;;;;;;2.10;0.67;;;;;;;;;;5077398;28;20229;-62
2022/09/29 04:06:40;;;;;;;4.07;0.40;;;;;;;;;;5071287;28;20230;-62
2022/09/29 04:09:08;;;;;;;0.40;0.40;;;;;;;;;;5065020;28;20701;-62
2022/09/29 04:11:36;;;;;;;1.20;0.60;;;;;;;;;;5068528;28;20207;-62
2022/09/29 04:14:06;;;;;;;0.40;0.40;;;;;;;;;;5068401;28;20223;-62
2022/09/29 04:16:34;;;;;;;0.93;0.47;;;;;;;;;;5068435;28;20209;-62
2022/09/29 04:19:01;;;;;;;0.50;0.40;;;;;;;;;;5070540;28;20253;-62
2022/09/29 04:21:30;;;;;;;0.60;0.60;;;;;;;;;;5077588;28;20203;-62
2022/09/29 04:23:58;;;;;;;3.10;0.40;;;;;;;;;;5061586;28;20218;-62
2022/09/29 04:26:26;;;;;;;0.30;0.30;;;;;;;;;;5072638;28;20218;-62
2022/09/29 04:28:54;;;;;;;0.60;0.40;;;;;;;;;;5071159;28;20209;-60
2022/09/29 04:31:23;;;;;;;0.60;0.60;;;;;;;;;;5075810;28;20194;-60
2022/09/29 04:33:51;;;;;;;0.40;0.40;;;;;;;;;;5071270;28;20226;-60
2022/09/29 04:36:19;;;;;;;0.50;0.50;;;;;;;;;;5063251;28;20207;-59
2022/09/29 04:38:49;;;;;;;0.60;0.60;;;;;;;;;;5064755;28;20195;-59
2022/09/29 04:41:17;;;;;;;0.60;0.60;;;;;;;;;;5067688;28;20237;-59
2022/09/29 04:43:45;;;;;;;2.53;0.67;;;;;;;;;;5069184;28;20681;-60
2022/09/29 04:46:13;;;;;;;0.83;0.77;;;;;;;;;;5070023;28;20226;-59
2022/09/29 04:48:43;;;;;;;1.00;0.90;;;;;;;;;;5056934;28;20200;-60
2022/09/29 04:51:11;;;;;;;0.80;0.80;;;;;;;;;;5060187;28;20282;-60
2022/09/29 04:53:39;;;;;;;0.80;0.80;;;;;;;;;;5057636;28;20215;-60
2022/09/29 04:56:07;;;;;;;2.30;0.70;;;;;;;;;;5059442;28;20702;-60
2022/09/29 04:58:35;;;;;;;0.77;0.77;;;;;;;;;;5063094;28;20648;-60
2022/09/29 05:01:07;;;;;;;0.87;0.80;;;;;;;;;;5051500;28;20285;-61
2022/09/29 05:03:36;;;;;;;2.57;0.67;;;;;;;;;;5058830;28;20227;-60
2022/09/29 05:06:05;;;;;;;0.80;0.80;;;;;;;;;;5056779;28;20196;-60
2022/09/29 05:08:33;;;;;;;0.80;0.60;;;;;;;;;;5054845;28;20207;-60
2022/09/29 05:11:03;;;;;;;1.80;0.60;;;;;;;;;;5053886;28;20635;-60
2022/09/29 05:13:31;;;;;;;0.77;0.70;;;;;;;;;;5057394;28;20219;-60
2022/09/29 05:15:59;;;;;;;1.63;1.00;;;;;;;;;;5057198;28;20658;-60
2022/09/29 05:18:27;;;;;;;2.43;0.90;;;;;;;;;;5054358;28;20659;-60
2022/09/29 05:20:55;;;;;;;0.70;0.60;;;;;;;;;;5054260;28;20223;-60
2022/09/29 05:23:44;;;;;;;0.50;0.50;;;;;;;;;;5056410;28;20329;-63
2022/09/29 05:26:13;;;;;;;1.80;0.70;;;;;;;;;;5061919;28;20213;-63
2022/09/29 05:28:43;;;;;;;0.53;0.50;;;;;;;;;;5067489;28;20229;-63
2022/09/29 05:31:11;;;;;;;3.07;0.60;;;;;;;;;;5062648;28;20199;-63
2022/09/29 05:33:40;;;;;;;0.90;0.70;;;;;;;;;;5064076;28;20698;-63
2022/09/29 05:36:09;;;;;;;3.90;0.70;;;;;;;;;;5058543;28;20199;-63
2022/09/29 05:38:37;;;;;;;0.57;0.57;;;;;;;;;;5051422;28;20203;-63
2022/09/29 05:41:07;;;;;;;2.60;0.70;;;;;;;;;;5044973;28;20202;-63
2022/09/29 05:43:35;;;;;;;1.17;1.00;;;;;;;;;;5054212;28;20223;-63
2022/09/29 05:46:03;;;;;;;1.43;0.87;;;;;;;;;;5068029;28;20564;-63
2022/09/29 05:48:31;;;;;;;2.40;0.90;;;;;;;;;;5061821;28;20317;-63
2022/09/29 05:51:00;;;;;;;1.80;1.00;;;;;;;;;;5059630;28;20203;-63
2022/09/29 05:53:28;;;;;;;1.60;0.87;;;;;;;;;;5071705;28;20226;-63
2022/09/29 05:55:56;;;;;;;0.60;0.60;;;;;;;;;;5058511;28;20234;-63
2022/09/29 05:58:25;;;;;;;1.57;0.50;;;;;;;;;;5069148;28;20195;-63
2022/09/29 06:00:53;;;;;;;0.70;0.70;;;;;;;;;;5069653;28;20210;-63
2022/09/29 06:03:21;;;;;;;7.07;4.90;;;;;;;;;;5062676;28;20283;-63
2022/09/29 06:05:49;;;;;;;1.73;1.30;;;;;;;;;;5061888;28;20198;-63
2022/09/29 06:08:17;;;;;;;1.10;1.00;;;;;;;;;;5061863;28;20223;-63
2022/09/29 06:10:45;;;;;;;3.20;1.00;;;;;;;;;;5070936;28;20202;-63
2022/09/29 06:13:13;;;;;;;0.67;0.50;;;;;;;;;;5062347;28;20210;-63
2022/09/29 06:15:42;;;;;;;1.30;1.17;;;;;;;;;;5058280;28;20202;-63
2022/09/29 06:18:10;;;;;;;3.70;1.30;;;;;;;;;;5057564;28;20217;-63
2022/09/29 06:20:38;;;;;;;3.27;2.07;;;;;;;;;;5059950;28;20195;-63
2022/09/29 06:23:06;;;;;;;1.20;1.13;;;;;;;;;;5062631;28;20213;-63
2022/09/29 06:25:34;;;;;;;0.83;0.80;;;;;;;;;;5072087;28;20206;-63
2022/09/29 06:28:02;;;;;;;0.90;0.80;;;;;;;;;;5064759;28;20224;-63
2022/09/29 06:30:30;;;;;;;1.40;0.90;;;;;;;;;;5070425;28;20202;-63
2022/09/29 06:32:59;;;;;;;11.63;1.80;;;;;;;;;;5063342;28;20206;-63
2022/09/29 06:38:13;;;;;;;4.93;1.20;;;;;;;;;;5067446;28;20202;-63
2022/09/29 06:40:41;;;;;;;5.30;1.50;;;;;;;;;;5059026;28;20199;-63
2022/09/29 06:43:10;;;;;;;4.00;1.00;;;;;;;;;;5067600;28;20206;-63
2022/09/29 06:45:38;;;;;;;1.67;1.00;;;;;;;;;;5073485;28;20206;-63
2022/09/29 06:48:10;;;;;;;2.53;1.13;;;;;;;;;;5069938;28;20222;-63
2022/09/29 06:50:38;;;;;;;1.70;1.00;;;;;;;;;;5060925;28;20203;-63
2022/09/29 06:53:06;;;;;;;2.23;0.80;;;;;;;;;;5062720;28;20662;-63
2022/09/29 06:55:34;;;;;;;3.10;0.80;;;;;;;;;;5058477;28;20570;-63
2022/09/29 06:58:02;;;;;;;3.27;1.20;;;;;;;;;;5066447;28;20198;-63
2022/09/29 07:00:31;;;;;;;1.23;0.97;;;;;;;;;;5065359;28;20612;-63
2022/09/29 07:02:59;;;;;;;2.10;0.93;;;;;;;;;;5061411;28;20574;-63
2022/09/29 07:05:29;;;;;;;2.90;0.90;;;;;;;;;;5059245;28;20670;-63
2022/09/29 07:07:56;;;;;;;4.20;1.40;;;;;;;;;;5055243;28;20218;-63
2022/09/29 07:10:28;;;;;;;1.37;1.27;;;;;;;;;;5063745;28;20199;-63
2022/09/29 07:12:56;;;;;;;1.70;0.90;;;;;;;;;;5060031;28;20209;-63
2022/09/29 07:15:30;;;;;;;1.10;1.00;;;;;;;;;;5056450;28;20213;-63
2022/09/29 07:17:58;;;;;;;1.83;1.43;;;;;;;;;;5053859;28;20198;-63
2022/09/29 07:20:26;;;;;;;2.37;0.93;;;;;;;;;;5059662;28;20650;-63
2022/09/29 07:22:56;;;;;;;1.60;1.07;;;;;;;;;;5060974;28;20214;-63
2022/09/29 07:25:24;;;;;;;1.73;1.30;;;;;;;;;;5066135;28;20218;-63
2022/09/29 07:28:12;;;;;;;2.17;0.83;;;;;;;;;;5068588;28;20226;-63
2022/09/29 07:30:40;;;;;;;1.63;1.30;;;;;;;;;;5063039;28;20209;-63
2022/09/29 07:33:08;;;;;;;3.77;1.00;;;;;;;;;;5067073;28;20267;-63
2022/09/29 07:35:36;;;;;;;0.83;0.73;;;;;;;;;;5073380;28;20202;-63
2022/09/29 07:38:08;;;;;;;3.43;1.10;;;;;;;;;;5073353;28;20202;-63
2022/09/29 07:40:36;;;;;;;2.83;0.97;;;;;;;;;;5063945;28;20209;-63
2022/09/29 07:43:04;;;;;;;1.97;1.20;;;;;;;;;;5065379;28;20217;-62
2022/09/29 07:45:32;;;;;;;2.87;1.27;;;;;;;;;;5071509;28;20564;-62
2022/09/29 07:48:00;;;;;;;2.27;1.43;;;;;;;;;;5065570;28;20307;-62
2022/09/29 07:50:28;;;;;;;2.93;1.47;;;;;;;;;;5065924;28;20207;-62
2022/09/29 07:52:57;;;;;;;5.90;1.53;;;;;;;;;;5070500;28;20210;-62
2022/09/29 07:55:26;;;;;;;1.63;1.30;;;;;;;;;;5076320;28;20200;-63
2022/09/29 07:57:55;;;;;;;8.37;1.77;;;;;;;;;;5066403;28;20278;-62
2022/09/29 08:00:23;;;;;;;2.87;1.27;;;;;;;;;;5073534;28;20232;-63
2022/09/29 08:02:51;;;;;;;2.00;1.30;;;;;;;;;;5066559;28;20696;-63
2022/09/29 08:05:19;;;;;;;2.20;1.37;;;;;;;;;;5062505;28;20219;-63
2022/09/29 08:07:50;;;;;;;7.30;1.77;;;;;;;;;;5065233;28;20198;-62
2022/09/29 08:10:18;;;;;;;19.17;3.40;;;;;;;;;;5070577;28;20203;-63
2022/09/29 08:12:48;;;;;;;9.50;1.90;;;;;;;;;;5063993;28;20203;-62
2022/09/29 08:15:16;;;;;;;5.47;2.90;;;;;;;;;;5073095;28;20231;-62
2022/09/29 08:17:44;;;;;;;9.30;2.80;;;;;;;;;;5066985;28;20198;-63
2022/09/29 08:20:12;;;;;;;2.33;1.60;;;;;;;;;;5069221;28;20207;-62
2022/09/29 08:22:40;;;;;;;4.10;1.70;;;;;;;;;;5076433;28;20658;-63
2022/09/29 08:25:08;;;;;;;14.10;2.50;;;;;;;;;;5071169;28;20232;-62
2022/09/29 08:27:36;;;;;;;22.27;4.10;;;;;;;;;;5063368;28;20201;-63
2022/09/29 08:30:22;;;;;;;8.30;2.23;;;;;;;;;;5071823;28;20206;-63
2022/09/29 08:32:53;;;;;;;7.40;1.70;;;;;;;;;;5060573;28;20565;-63
2022/09/29 08:35:21;;;;;;;4.73;1.57;;;;;;;;;;5066050;28;20261;-63
2022/09/29 08:37:49;;;;;;;2.73;1.10;;;;;;;;;;5061856;28;20199;-63
2022/09/29 08:40:17;;;;;;;1.70;1.10;;;;;;;;;;5065180;28;20214;-63
2022/09/29 08:42:50;;;;;;;2.40;1.23;;;;;;;;;;5054429;28;20201;-63
2022/09/29 08:45:23;;;;;;;2.27;0.90;;;;;;;;;;5065444;28;20222;-63
2022/09/29 08:47:56;;;;;;;16.83;3.40;;;;;;;;;;5064346;28;20203;-62
2022/09/29 08:50:27;;;;;;;5.67;1.87;;;;;;;;;;5064401;28;20207;-62
2022/09/29 08:52:57;;;;;;;5.00;1.80;;;;;;;;;;5064265;28;20199;-62
2022/09/29 08:55:27;;;;;;;3.40;1.20;;;;;;;;;;5065186;28;20210;-62
2022/09/29 08:57:58;;;;;;;3.07;1.73;;;;;;;;;;5063436;28;20199;-63
2022/09/29 09:00:30;;;;;;;7.30;1.53;;;;;;;;;;5059601;28;20601;-63
2022/09/29 09:03:13;;;;;;;7.27;2.00;;;;;;;;;;5059686;28;20307;-63
2022/09/29 09:05:57;;;;;;;10.40;2.30;;;;;;;;;;5064284;28;20201;-62
2022/09/29 09:08:32;;;;;;;8.20;1.97;;;;;;;;;;5067122;28;20225;-62
2022/09/29 09:11:05;;;;;;;6.30;2.00;;;;;;;;;;5072247;28;20286;-64
2022/09/29 09:13:43;;;;;;;7.43;1.70;;;;;;;;;;5067559;28;20226;-64
2022/09/29 09:16:16;;;;;;;8.37;2.87;;;;;;;;;;5063738;28;20207;-64
2022/09/29 09:18:51;;;;;;;6.80;1.80;;;;;;;;;;5057884;28;20199;-64
2022/09/29 09:21:24;;;;;;;3.23;1.53;;;;;;;;;;5061400;28;20256;-62
2022/09/29 09:23:54;;;;;;;4.17;1.50;;;;;;;;;;5064697;28;20592;-64
2022/09/29 09:26:38;;;;;;;8.70;2.23;;;;;;;;;;5074189;28;20236;-62
2022/09/29 09:29:11;;;;;;;3.33;1.53;;;;;;;;;;5067715;28;20218;-64
2022/09/29 09:31:40;;;;;;;10.07;1.77;;;;;;;;;;5074411;28;20578;-62
2022/09/29 09:34:13;;;;;;;3.97;1.10;;;;;;;;;;5065665;28;20214;-63
2022/09/29 09:36:45;;;;;;;2.07;1.20;;;;;;;;;;5063850;28;20573;-63
2022/09/29 09:39:20;;;;;;;4.90;1.50;;;;;;;;;;5059235;28;20199;-63
2022/09/29 09:41:51;;;;;;;4.37;1.43;;;;;;;;;;5061318;28;20250;-62
2022/09/29 09:44:21;;;;;;;1.70;1.10;;;;;;;;;;5070825;28;20249;-62
2022/09/29 09:46:49;;;;;;;1.70;0.83;;;;;;;;;;5059564;28;20662;-62
2022/09/29 09:49:20;;;;;;;1.80;1.20;;;;;;;;;;5058780;28;20227;-63
2022/09/29 09:51:54;;;;;;;2.63;0.80;;;;;;;;;;5069093;28;20202;-63
2022/09/29 09:54:28;;;;;;;4.13;1.00;;;;;;;;;;5062584;28;20226;-62
2022/09/29 09:57:03;;;;;;;3.57;1.10;;;;;;;;;;5054469;28;20230;-63
2022/09/29 09:59:37;;;;;;;3.80;1.10;;;;;;;;;;5066673;28;20209;-63
2022/09/29 10:02:05;;;;;;;4.60;1.43;;;;;;;;;;5065341;28;20195;-64
2022/09/29 10:04:33;;;;;;;7.23;1.47;;;;;;;;;;5066564;28;20698;-63
2022/09/29 10:07:02;;;;;;;10.10;2.27;;;;;;;;;;5062690;28;20667;-62
2022/09/29 10:09:30;;;;;;;8.43;1.83;;;;;;;;;;5060775;28;20233;-63
2022/09/29 10:11:58;;;;;;;6.00;1.57;;;;;;;;;;5056823;28;20233;-63
2022/09/29 10:14:28;;;;;;;7.37;1.60;;;;;;;;;;5056663;28;20233;-63
2022/09/29 10:16:58;;;;;;;5.17;1.30;;;;;;;;;;5059316;28;20573;-61
2022/09/29 10:19:40;;;;;;;2.77;1.50;;;;;;;;;;5059222;28;20199;-61
2022/09/29 10:22:13;;;;;;;1.37;0.90;;;;;;;;;;5055272;28;20747;-61
2022/09/29 10:24:41;;;;;;;5.17;2.33;;;;;;;;;;5058865;28;20222;-61
2022/09/29 10:27:10;;;;;;;4.60;1.57;;;;;;;;;;5055245;28;20203;-61
2022/09/29 10:29:39;;;;;;;3.43;1.30;;;;;;;;;;5056356;28;20218;-61
2022/09/29 10:32:09;;;;;;;3.60;1.00;;;;;;;;;;5057600;28;20222;-62
2022/09/29 10:34:38;;;;;;;2.73;1.60;;;;;;;;;;5054732;28;20584;-62
2022/09/29 10:37:17;;;;;;;2.70;1.10;;;;;;;;;;5056281;28;20205;-62
2022/09/29 10:39:48;;;;;;;5.23;1.13;;;;;;;;;;5055952;28;20642;-62
2022/09/29 10:42:16;;;;;;;1.97;1.03;;;;;;;;;;5054506;28;20203;-62
2022/09/29 10:44:50;;;;;;;2.77;1.63;;;;;;;;;;5060803;28;20237;-62
2022/09/29 10:47:19;;;;;;;2.47;0.90;;;;;;;;;;5049704;28;20199;-61
2022/09/29 10:49:48;;;;;;;1.90;0.93;;;;;;;;;;5053637;28;20219;-61
2022/09/29 10:52:22;;;;;;;3.77;1.23;;;;;;;;;;5056118;28;20681;-61
2022/09/29 10:54:57;;;;;;;7.10;1.33;;;;;;;;;;5053390;28;20229;-62
2022/09/29 10:57:26;;;;;;;3.80;1.00;;;;;;;;;;5056245;28;20230;-62
2022/09/29 10:59:56;;;;;;;2.70;1.13;;;;;;;;;;5056123;28;20207;-62
2022/09/29 11:02:26;;;;;;;2.57;1.10;;;;;;;;;;5049334;28;20547;-62
2022/09/29 11:04:56;;;;;;;1.47;0.90;;;;;;;;;;5055985;28;20219;-62
2022/09/29 11:07:24;;;;;;;2.67;0.83;;;;;;;;;;5058580;28;20607;-62
2022/09/29 11:09:53;;;;;;;3.73;0.93;;;;;;;;;;5065959;28;20610;-61
2022/09/29 11:12:28;;;;;;;5.07;1.33;;;;;;;;;;5055867;28;20205;-61
2022/09/29 11:14:56;;;;;;;2.23;1.00;;;;;;;;;;5063602;28;20585;-61
2022/09/29 11:17:25;;;;;;;2.30;1.27;;;;;;;;;;5060799;28;20205;-61
2022/09/29 11:19:54;;;;;;;1.70;1.33;;;;;;;;;;5061286;28;20214;-62
2022/09/29 11:22:45;;;;;;;1.17;1.03;;;;;;;;;;5055207;28;20194;-61
2022/09/29 11:25:31;;;;;;;2.30;1.07;;;;;;;;;;5052310;28;20231;-62
2022/09/29 11:28:06;;;;;;;2.10;1.40;;;;;;;;;;5048519;28;20196;-62
2022/09/29 11:30:42;;;;;;;2.30;0.90;;;;;;;;;;5055330;28;20629;-63
2022/09/29 11:33:16;;;;;;;0.77;0.67;;;;;;;;;;5050974;28;20640;-61
2022/09/29 11:35:46;;;;;;;3.33;0.77;;;;;;;;;;5057083;28;20285;-64
2022/09/29 11:38:38;;;;;;;1.27;0.90;;;;;;;;;;5056556;28;20650;-63
2022/09/29 11:41:14;;;;;;;2.07;0.83;;;;;;;;;;5045663;28;20556;-62
2022/09/29 11:43:46;;;;;;;1.67;0.90;;;;;;;;;;5046785;28;20347;-62
2022/09/29 11:46:22;;;;;;;7.37;1.20;;;;;;;;;;5048785;28;20206;-62
2022/09/29 11:49:09;;;;;;;4.50;1.20;;;;;;;;;;5052636;28;20203;-62
2022/09/29 11:51:45;;;;;;;2.53;1.10;;;;;;;;;;5050176;28;20214;-62
2022/09/29 11:54:31;;;;;;;2.33;0.80;;;;;;;;;;5054305;28;20227;-62
2022/09/29 11:57:04;;;;;;;2.00;0.90;;;;;;;;;;5053459;28;20345;-62
2022/09/29 11:59:40;;;;;;;3.80;1.50;;;;;;;;;;5056285;28;20199;-61
2022/09/29 12:02:24;;;;;;;1.47;1.10;;;;;;;;;;5050785;28;20207;-62
2022/09/29 12:04:57;;;;;;;0.70;0.70;;;;;;;;;;5051267;28;20258;-62
2022/09/29 12:07:35;;;;;;;8.03;7.23;;;;;;;;;;5053395;28;20210;-63
2022/09/29 12:10:17;;;;;;;2.57;1.77;;;;;;;;;;5052723;28;20228;-62
2022/09/29 12:12:55;;;;;;;1.10;1.00;;;;;;;;;;5060621;28;20248;-63
2022/09/29 12:15:28;;;;;;;1.20;0.90;;;;;;;;;;5053450;28;20291;-63
2022/09/29 12:17:59;;;;;;;1.07;0.90;;;;;;;;;;5057783;28;20257;-63
2022/09/29 12:20:28;;;;;;;1.97;1.03;;;;;;;;;;5051417;28;20209;-62
2022/09/29 12:22:59;;;;;;;1.73;1.20;;;;;;;;;;5050733;28;20214;-62
2022/09/29 12:25:29;;;;;;;2.23;0.83;;;;;;;;;;5060080;28;20274;-63
2022/09/29 12:28:00;;;;;;;1.93;0.73;;;;;;;;;;5057281;28;20199;-62
2022/09/29 12:30:33;;;;;;;2.40;1.13;;;;;;;;;;5054672;28;20231;-63
2022/09/29 12:33:03;;;;;;;2.87;1.30;;;;;;;;;;5058192;28;20199;-62
2022/09/29 12:35:34;;;;;;;3.57;1.00;;;;;;;;;;5056194;28;20270;-63
2022/09/29 12:38:11;;;;;;;1.47;0.90;;;;;;;;;;5053360;28;20209;-62
2022/09/29 12:40:41;;;;;;;1.77;0.90;;;;;;;;;;5056530;28;20677;-62
2022/09/29 12:43:12;;;;;;;2.80;1.10;;;;;;;;;;5047788;28;20295;-62
2022/09/29 12:45:45;;;;;;;2.87;0.90;;;;;;;;;;5051793;28;20222;-62
2022/09/29 12:48:26;;;;;;;2.73;1.00;;;;;;;;;;5051398;28;20210;-63
2022/09/29 12:50:58;;;;;;;1.70;0.83;;;;;;;;;;5052507;28;20225;-63
2022/09/29 12:53:29;;;;;;;2.10;1.10;;;;;;;;;;5056811;28;20291;-63
2022/09/29 12:56:01;;;;;;;1.63;1.20;;;;;;;;;;5054362;28;20314;-63
2022/09/29 12:58:33;;;;;;;1.43;1.07;;;;;;;;;;5041399;28;20208;-62
2022/09/29 13:01:04;;;;;;;2.03;1.07;;;;;;;;;;5061213;28;20207;-62
2022/09/29 13:03:52;;;;;;;1.97;0.90;;;;;;;;;;5059670;28;20253;-62
2022/09/29 13:06:38;;;;;;;3.23;1.10;;;;;;;;;;5052234;28;20226;-62
2022/09/29 13:09:16;;;;;;;1.70;0.90;;;;;;;;;;5046987;28;20255;-62
2022/09/29 13:11:52;;;;;;;5.73;0.67;;;;;;;;;;5053252;28;20230;-62
2022/09/29 13:14:35;;;;;;;0.73;0.73;;;;;;;;;;5060359;28;20720;-63
2022/09/29 13:17:10;;;;;;;3.33;1.00;;;;;;;;;;5043920;28;20198;-62
2022/09/29 13:19:47;;;;;;;2.63;1.40;;;;;;;;;;5054443;28;20209;-62
2022/09/29 13:22:42;;;;;;;1.50;1.33;;;;;;;;;;5057631;28;20263;-62
2022/09/29 13:25:17;;;;;;;3.57;1.50;;;;;;;;;;5054194;28;20229;-62
2022/09/29 13:27:45;;;;;;;2.37;1.20;;;;;;;;;;5058004;28;20195;-62
2022/09/29 13:30:15;;;;;;;5.70;0.90;;;;;;;;;;5050750;28;20218;-63
2022/09/29 13:32:46;;;;;;;3.87;1.00;;;;;;;;;;5058724;28;20223;-63
2022/09/29 13:35:18;;;;;;;5.47;3.13;;;;;;;;;;5057513;28;20230;-63
2022/09/29 13:37:49;;;;;;;2.00;1.07;;;;;;;;;;5057974;28;20203;-63
2022/09/29 13:40:19;;;;;;;3.07;1.30;;;;;;;;;;5057594;28;20210;-63
2022/09/29 13:42:47;;;;;;;1.93;1.30;;;;;;;;;;5058154;28;20221;-63
2022/09/29 13:45:40;;;;;;;3.63;1.00;;;;;;;;;;5057559;28;20223;-63
2022/09/29 13:48:27;;;;;;;1.17;0.90;;;;;;;;;;5057792;28;20206;-63
2022/09/29 13:50:59;;;;;;;1.57;0.87;;;;;;;;;;5057607;28;20218;-62
2022/09/29 13:53:36;;;;;;;3.63;0.90;;;;;;;;;;5057305;28;20349;-62
2022/09/29 13:56:10;;;;;;;4.53;1.00;;;;;;;;;;5056697;28;20307;-63
2022/09/29 13:58:55;;;;;;;3.87;0.77;;;;;;;;;;5056740;28;20283;-63
2022/09/29 14:01:30;;;;;;;1.67;0.87;;;;;;;;;;5058048;28;20249;-63
2022/09/29 14:03:58;;;;;;;1.77;0.97;;;;;;;;;;5056660;28;20248;-63
2022/09/29 14:06:34;;;;;;;0.73;0.70;;;;;;;;;;5056423;28;20607;-63
2022/09/29 14:09:13;;;;;;;1.13;0.60;;;;;;;;;;5055556;28;20227;-62
2022/09/29 14:11:43;;;;;;;2.53;0.67;;;;;;;;;;5056036;28;20222;-62
2022/09/29 14:14:15;;;;;;;1.43;0.60;;;;;;;;;;5057971;28;20226;-64
2022/09/29 14:16:52;;;;;;;2.00;0.83;;;;;;;;;;5055127;28;20199;-64
2022/09/29 14:19:33;;;;;;;0.57;0.57;;;;;;;;;;5052942;28;20203;-64
2022/09/29 14:22:04;;;;;;;1.57;0.80;;;;;;;;;;5055164;28;20205;-64
2022/09/29 14:24:42;;;;;;;3.03;1.10;;;;;;;;;;5053493;28;20214;-64
2022/09/29 14:27:31;;;;;;;1.73;0.90;;;;;;;;;;5057226;28;20586;-64
2022/09/29 14:30:11;;;;;;;1.23;1.00;;;;;;;;;;5057395;28;20260;-64
2022/09/29 14:32:41;;;;;;;1.90;0.90;;;;;;;;;;5050721;28;20244;-65
2022/09/29 14:35:20;;;;;;;2.57;1.10;;;;;;;;;;5055987;28;20227;-65
2022/09/29 14:37:53;;;;;;;1.20;1.10;;;;;;;;;;5049571;28;20259;-65
2022/09/29 14:40:29;;;;;;;2.27;0.73;;;;;;;;;;5057261;28;20209;-64
2022/09/29 14:43:21;;;;;;;0.43;0.43;;;;;;;;;;5057355;28;20191;-65
2022/09/29 14:52:00;;;;;;;2.27;0.53;;;;;;;;;;5052618;28;20682;-65
2022/09/29 14:54:42;;;;;;;1.43;0.70;;;;;;;;;;5052346;28;20219;-64
2022/09/29 14:57:15;;;;;;;1.97;0.67;;;;;;;;;;5051640;28;20269;-65
2022/09/29 14:59:50;;;;;;;2.03;0.90;;;;;;;;;;5046262;28;20202;-65
2022/09/29 15:02:20;;;;;;;0.80;0.60;;;;;;;;;;5056622;28;20198;-66
2022/09/29 15:04:48;;;;;;;1.37;0.80;;;;;;;;;;5056159;28;20261;-65
2022/09/29 15:07:17;;;;;;;1.53;0.50;;;;;;;;;;5057402;28;20206;-62
2022/09/29 15:09:47;;;;;;;3.20;0.73;;;;;;;;;;5044554;28;20206;-63
2022/09/29 15:12:17;;;;;;;1.70;0.73;;;;;;;;;;5051880;28;20223;-63
2022/09/29 15:14:45;;;;;;;1.57;0.90;;;;;;;;;;5049032;28;20234;-64
2022/09/29 15:17:17;;;;;;;2.63;0.73;;;;;;;;;;5056800;28;20207;-63